createdAt,value
2018-08-16T00:01:53.875Z,100991.98
2018-08-16T00:06:57.560Z,100996.52
2018-08-16T00:12:01.292Z,100998.91
2018-08-16T00:17:05.211Z,100992.61
2018-08-16T00:22:08.768Z,100990.70
2018-08-16T00:27:12.567Z,100996.31
2018-08-16T00:32:16.294Z,100996.54
2018-08-16T00:37:20.017Z,100996.28
2018-08-16T00:42:23.548Z,100993.95
2018-08-16T00:47:27.144Z,100994.03
2018-08-16T00:52:30.865Z,100992.31
2018-08-16T00:57:34.582Z,100993.89
2018-08-16T01:02:38.298Z,100997.91
2018-08-16T01:07:41.971Z,100996.76
2018-08-16T01:12:45.543Z,100992.63
2018-08-16T01:17:49.198Z,100987.45
2018-08-16T01:22:52.927Z,100989.62
2018-08-16T01:27:56.742Z,100991.51
2018-08-16T01:33:00.482Z,100996.25
2018-08-16T01:38:04.090Z,100994.09
2018-08-16T01:43:08.816Z,100990.44
2018-08-16T01:48:13.091Z,100996.28
2018-08-16T01:53:16.629Z,100983.98
2018-08-16T01:58:20.368Z,100987.38
2018-08-16T02:03:24.047Z,100977.22
2018-08-16T02:08:27.672Z,100979.00
2018-08-16T02:13:31.238Z,100979.27
2018-08-16T02:18:34.867Z,100975.71
2018-08-16T02:23:38.414Z,100974.48
2018-08-16T02:28:42.082Z,100973.30
2018-08-16T02:33:45.712Z,100973.85
2018-08-16T02:38:49.591Z,100975.05
2018-08-16T02:43:53.162Z,100971.31
2018-08-16T02:48:56.866Z,100963.10
2018-08-16T02:54:00.460Z,100963.71
2018-08-16T02:59:04.128Z,100971.36
2018-08-16T03:04:07.853Z,100961.87
2018-08-16T03:09:12.010Z,100964.00
2018-08-16T03:14:15.667Z,100959.27
2018-08-16T03:19:19.423Z,100949.45
2018-08-16T03:24:22.956Z,100946.63
2018-08-16T03:29:26.728Z,100938.84
2018-08-16T03:34:30.337Z,100934.12
2018-08-16T03:39:34.129Z,100930.62
2018-08-16T03:44:37.752Z,100932.95
2018-08-16T03:49:41.416Z,100923.19
2018-08-16T03:54:45.067Z,100928.45
2018-08-16T03:59:48.738Z,100929.91
2018-08-16T04:04:52.358Z,100929.66
2018-08-16T04:09:56.033Z,100930.31
2018-08-16T04:14:59.596Z,100924.65
2018-08-16T04:20:03.897Z,100931.83
2018-08-16T04:25:07.465Z,100928.19
2018-08-16T04:30:17.111Z,100930.66
2018-08-16T04:35:20.744Z,100934.46
2018-08-16T04:40:24.361Z,100934.38
2018-08-16T04:45:27.945Z,100932.66
2018-08-16T04:50:31.579Z,100924.13
2018-08-16T04:55:35.125Z,100925.49
2018-08-16T05:00:38.868Z,100928.86
2018-08-16T05:05:42.495Z,100931.80
2018-08-16T05:10:46.125Z,100929.69
2018-08-16T05:15:49.830Z,100928.55
2018-08-16T05:20:53.932Z,100921.58
2018-08-16T05:25:57.582Z,100918.47
2018-08-16T05:31:01.273Z,100919.50
2018-08-16T05:36:05.158Z,100919.79
2018-08-16T05:41:08.764Z,100919.88
2018-08-16T05:46:22.483Z,100919.52
2018-08-16T05:51:26.109Z,100920.61
2018-08-16T05:56:29.735Z,100915.68
2018-08-16T06:01:33.517Z,100908.06
2018-08-16T06:06:37.075Z,100906.72
2018-08-16T06:11:40.686Z,100904.23
2018-08-16T06:16:44.420Z,100890.97
2018-08-16T06:21:48.087Z,100894.60
2018-08-16T06:26:51.893Z,100893.20
2018-08-16T06:31:55.631Z,100893.32
2018-08-16T06:36:59.292Z,100894.44
2018-08-16T06:42:03.262Z,100894.18
2018-08-16T06:47:06.922Z,100883.34
2018-08-16T06:52:10.634Z,100882.50
2018-08-16T06:57:14.970Z,100884.31
2018-08-16T07:02:18.618Z,100891.20
2018-08-16T07:07:22.301Z,100887.91
2018-08-16T07:12:26.018Z,100886.80
2018-08-16T07:17:29.777Z,100888.91
2018-08-16T07:22:34.693Z,100878.97
2018-08-16T07:27:38.593Z,100877.41
2018-08-16T07:32:42.224Z,100872.62
2018-08-16T07:37:45.853Z,100875.40
2018-08-16T07:42:49.491Z,100864.73
2018-08-16T07:47:53.541Z,100870.91
2018-08-16T07:52:57.186Z,100868.00
2018-08-16T07:58:00.836Z,100858.82
2018-08-16T08:03:04.484Z,100851.38
2018-08-16T08:08:08.935Z,100853.55
2018-08-16T08:13:12.725Z,100853.84
2018-08-16T08:18:16.361Z,100843.95
2018-08-16T08:23:25.780Z,100845.20
2018-08-16T08:28:29.429Z,100839.92
2018-08-16T08:33:33.142Z,100843.44
2018-08-16T08:38:36.683Z,100841.11
2018-08-16T08:43:51.559Z,100836.36
2018-08-16T08:48:55.341Z,100832.84
2018-08-16T08:54:43.993Z,100820.42
2018-08-16T08:59:47.578Z,100822.84
2018-08-16T09:04:51.289Z,100816.70
2018-08-16T09:11:10.348Z,100822.48
2018-08-16T09:16:19.261Z,100820.01
2018-08-16T09:21:22.790Z,100808.19
2018-08-16T09:26:32.911Z,100805.89
2018-08-16T09:31:47.959Z,100795.30
2018-08-16T09:36:52.353Z,100795.86
2018-08-16T09:41:57.072Z,100787.22
2018-08-16T09:47:14.203Z,100788.00
2018-08-16T09:52:19.014Z,100775.52
2018-08-16T09:57:22.636Z,100768.84
2018-08-16T10:02:26.317Z,100765.74
2018-08-16T10:07:29.916Z,100759.98
2018-08-16T10:12:33.745Z,100754.83
2018-08-16T10:17:37.432Z,100748.67
2018-08-16T10:22:41.451Z,100747.19
2018-08-16T10:27:44.946Z,100743.42
2018-08-16T10:32:48.698Z,100736.69
2018-08-16T10:37:52.352Z,100731.00
2018-08-16T10:42:55.956Z,100728.59
2018-08-16T10:47:59.491Z,100722.91
2018-08-16T10:53:03.209Z,100724.55
2018-08-16T10:58:06.978Z,100718.84
2018-08-16T11:03:13.659Z,100710.55
2018-08-16T11:08:17.397Z,100708.73
2018-08-16T11:13:21.210Z,100700.34
2018-08-16T11:18:24.802Z,100699.45
2018-08-16T11:23:28.387Z,100696.09
2018-08-16T11:28:32.240Z,100700.06
2018-08-16T11:33:35.978Z,100693.29
2018-08-16T11:38:39.820Z,100693.36
2018-08-16T11:43:43.921Z,100687.31
2018-08-16T11:48:47.730Z,100686.69
2018-08-16T11:53:51.566Z,100692.52
2018-08-16T11:58:56.102Z,100682.31
2018-08-16T12:03:59.705Z,100675.76
2018-08-16T12:09:03.623Z,100674.63
2018-08-16T12:14:07.616Z,100662.50
2018-08-16T12:19:11.571Z,100653.20
2018-08-16T12:24:15.348Z,100652.83
2018-08-16T12:29:18.991Z,100646.83
2018-08-16T12:34:22.603Z,100648.20
2018-08-16T12:39:40.376Z,100643.45
2018-08-16T12:44:45.361Z,100633.47
2018-08-16T12:49:48.987Z,100628.76
2018-08-16T12:54:52.665Z,100616.20
2018-08-16T12:59:56.329Z,100614.73
2018-08-16T13:05:00.098Z,100611.53
2018-08-16T13:10:04.248Z,100603.36
2018-08-16T13:15:15.954Z,100597.88
2018-08-16T13:20:19.890Z,100587.09
2018-08-16T13:25:25.332Z,100592.37
2018-08-16T13:30:30.347Z,100588.90
2018-08-16T13:35:46.987Z,100582.38
2018-08-16T13:40:52.947Z,100584.14
2018-08-16T13:45:57.999Z,100576.03
2018-08-16T13:51:02.483Z,100574.36
2018-08-16T13:56:07.922Z,100575.84
2018-08-16T14:01:11.517Z,100568.00
2018-08-16T14:06:15.177Z,100571.91
2018-08-16T14:11:18.786Z,100563.22
2018-08-16T14:16:22.390Z,100563.08
2018-08-16T14:21:26.019Z,100546.26
2018-08-16T14:26:29.633Z,100550.91
2018-08-16T14:31:33.716Z,100546.88
2018-08-16T14:36:38.041Z,100545.40
2018-08-16T14:41:42.051Z,100533.86
2018-08-16T14:46:45.666Z,100542.58
2018-08-16T14:51:49.370Z,100536.33
2018-08-16T14:56:53.073Z,100533.29
2018-08-16T15:01:56.615Z,100533.59
2018-08-16T15:07:00.355Z,100530.17
2018-08-16T15:12:03.894Z,100529.97
2018-08-16T15:17:07.537Z,100530.95
2018-08-16T15:22:28.997Z,100530.06
2018-08-16T15:27:32.683Z,100527.03
2018-08-16T15:32:36.405Z,100532.02
2018-08-16T15:37:40.198Z,100536.08
2018-08-16T15:42:43.822Z,100539.35
2018-08-16T15:47:47.465Z,100531.63
2018-08-16T15:52:51.029Z,100530.44
2018-08-16T15:57:54.661Z,100531.14
2018-08-16T16:02:58.187Z,100524.00
2018-08-16T16:08:01.891Z,100530.59
2018-08-16T16:13:05.510Z,100528.02
2018-08-16T16:18:09.329Z,100529.48
2018-08-16T16:23:12.907Z,100528.78
2018-08-16T16:28:17.526Z,100534.79
2018-08-16T16:33:21.165Z,100522.98
2018-08-16T16:38:25.082Z,100526.42
2018-08-16T16:43:28.624Z,100522.09
2018-08-16T16:48:32.452Z,100525.63
2018-08-16T16:53:36.108Z,100523.88
2018-08-16T16:58:40.437Z,100520.67
2018-08-16T17:03:44.582Z,100519.43
2018-08-16T17:08:48.240Z,100519.80
2018-08-16T17:13:52.878Z,100522.31
2018-08-16T17:18:56.581Z,100526.64
2018-08-16T17:24:00.630Z,100525.75
2018-08-16T17:29:04.291Z,100528.92
2018-08-16T17:34:07.929Z,100522.18
2018-08-16T17:39:12.024Z,100516.30
2018-08-16T17:44:15.570Z,100521.59
2018-08-16T17:49:19.240Z,100524.62
2018-08-16T17:54:22.759Z,100525.19
2018-08-16T17:59:26.746Z,100528.28
2018-08-16T18:04:30.400Z,100527.80
2018-08-16T18:09:34.039Z,100533.22
2018-08-16T18:14:38.082Z,100541.86
2018-08-16T18:19:41.974Z,100538.35
2018-08-16T18:24:45.608Z,100546.80
2018-08-16T18:29:49.281Z,100543.95
2018-08-16T18:34:53.046Z,100549.64
2018-08-16T18:39:57.043Z,100550.69
2018-08-16T18:45:00.747Z,100564.55
2018-08-16T18:50:04.467Z,100564.88
2018-08-16T18:55:08.396Z,100567.91
2018-08-16T19:00:14.595Z,100585.89
2018-08-16T19:05:18.383Z,100582.83
2018-08-16T19:10:22.009Z,100574.19
2018-08-16T19:15:25.530Z,100589.55
2018-08-16T19:20:29.160Z,100590.23
2018-08-16T19:25:32.759Z,100597.50
2018-08-16T19:30:36.377Z,100609.01
2018-08-16T19:35:39.965Z,100610.97
2018-08-16T19:40:43.588Z,100613.54
2018-08-16T19:45:47.127Z,100623.59
2018-08-16T19:50:51.441Z,100614.29
2018-08-16T19:55:55.064Z,100620.80
2018-08-16T20:00:58.967Z,100615.94
2018-08-16T20:06:03.026Z,100614.13
2018-08-16T20:11:07.428Z,100616.95
2018-08-16T20:16:11.085Z,100611.74
2018-08-16T20:21:14.764Z,100608.98
2018-08-16T20:26:18.419Z,100606.63
2018-08-16T20:31:22.796Z,100607.33
2018-08-16T20:36:26.483Z,100601.77
2018-08-16T20:41:30.222Z,100607.42
2018-08-16T20:46:34.575Z,100608.57
2018-08-16T20:51:38.859Z,100616.28
2018-08-16T20:56:42.992Z,100611.80
2018-08-16T21:01:49.284Z,100618.73
2018-08-16T21:06:53.893Z,100612.92
2018-08-16T21:11:58.455Z,100616.83
2018-08-16T21:17:02.098Z,100616.00
2018-08-16T21:22:05.987Z,100619.08
2018-08-16T21:27:09.641Z,100623.92
2018-08-16T21:32:13.493Z,100621.88
2018-08-16T21:37:16.979Z,100625.80
2018-08-16T21:42:20.588Z,100633.95
2018-08-16T21:47:24.913Z,100644.05
2018-08-16T21:52:28.569Z,100645.23
2018-08-16T21:57:32.718Z,100650.94
2018-08-16T22:02:36.413Z,100658.66
2018-08-16T22:08:12.913Z,100659.56
2018-08-16T22:13:16.557Z,100663.21
2018-08-16T22:18:20.292Z,100661.26
2018-08-16T22:23:23.947Z,100656.91
2018-08-16T22:28:27.848Z,100661.44
2018-08-16T22:33:31.967Z,100653.25
2018-08-16T22:38:35.487Z,100661.16
2018-08-16T22:43:39.298Z,100652.11
2018-08-16T22:48:42.808Z,100652.97
2018-08-16T22:53:46.436Z,100652.11
2018-08-16T22:58:50.090Z,100650.36
2018-08-16T23:03:53.715Z,100641.41
2018-08-16T23:08:57.389Z,100649.59
2018-08-16T23:14:01.051Z,100637.02
2018-08-16T23:19:04.586Z,100629.09
2018-08-16T23:24:08.314Z,100631.16
2018-08-16T23:29:12.562Z,100624.56
2018-08-16T23:34:16.808Z,100627.39
2018-08-16T23:39:20.993Z,100626.56
2018-08-16T23:44:24.662Z,100619.77
2018-08-16T23:49:28.318Z,100624.69
2018-08-16T23:54:32.010Z,100622.05
2018-08-16T23:59:35.833Z,100623.18
